Gogerbank, United Kingdom

8:49 PM GMT on March 23, 2017 (GMT +0000)
Corstorphine, Edinburgh | | Change Station

Elev 171 ft 55.94 °N, 3.30 °W | Updated 2 minutes ago

Mostly Cloudy
Mostly Cloudy
41.9 °F
Feels Like 42 °F
N
1.9
Wind Variable Wind from NE

Today
High -- | Low -- °F
--% Chance of Precip.
Yesterday
High -- | Low -- °F
Precip. -- in
Pressure 30.45 in
Visibility 6.2 miles
Clouds Mostly Cloudy 2400 ft
Windchill 42 °F
Dew Point 42 °F
Humidity 100%
Rainfall Not available.
Snow Depth Not available.
6:07 AM 6:33 PM
Waning Crescent, 21% visible
METAR EGPH 232020Z 06004KT 9999 BKN024 05/01 Q1031
Pressure 30.45 in
Visibility 6.2 miles
Clouds Mostly Cloudy 2400 ft
Windchill 42 °F
Dew Point 42 °F
Humidity 100%
Rainfall Not available.
Snow Depth Not available.
6:07 AM 6:33 PM
Waning Crescent, 21% visible
METAR EGPH 232020Z 06004KT 9999 BKN024 05/01 Q1031

Get Severe Weather Alerts

Thanks for signing up!

Be on the lookout for a verification email in your inbox.

You'll start receiving the daily forecast at 8 AM.

×

10-Day Weather Forecast

×

Almanac

Astronomy

Mar. 23, 2017 Rise Set
Actual Time
Civil Twilight
Nautical Twilight
Astronomical Twilight
Moon
Length of Visible Light
Length of Day
Tomorrow will be .
, % of the Moon is Illuminated

Today's Extremes

Country Highs Country Lows

Community

WunderPhotos

Upload Photos

1,962,540 photos uploaded!

WunderBlog® & News

Nearby

Air Quality

  Air Quality AQ Index Pollutant
Not available.

Snow Depth

Station Depth Elevation

Earthquake Activity

City Distance Mag. Time & Date
Minimum magnitude displayed is 2.5.

Earthquake Activity

City Distance Mag. Time & Date
Minimum magnitude displayed is 2.5.

Coastal Water Temperatures

Place Temperature

Stations

Nearby Weather Stations

Station Location Temp. Windchill Dew Point Humidity Wind Precip. Elev Updated Type